Vulcan, West Virginia
Current Conditions -  °F | °C
As of 8:15 AM on Saturday 22 Nov 2014 (Local Time) from KPBX Reporting Station
Clear Clear  
Wind Chill: 31°   Ceiling: Unl
Heat Index: 36°   Visibility: 10mi
Dew Point: 15°   Wind: 6mph
Humidity: 42%   Direction: 150°SSE
Pressure: 30.37"   Gusts: NA
Location:  37.55°N, 82.13°W
Report Text: KPBX 221315Z AUTO 15005KT 10SM CLR 02/M09 A3037 RMK AO2 T00231095
Loading
Personal Weather Stations






























Interactive Weather Map New forecast layout! Learn more

10-Day Weather Forecast

Advertisements
Track Severe Weather on mobile